Time;durP1;ratioP1;P1;durP2;ratioP2;P2;SDS_P1;SDS_P2;PMS_P1;PMS_P2;Temp;Humidity;BMP_temperature;BMP_pressure;BME280_temperature;BME280_humidity;BME280_pressure;Samples;Min_cycle;Max_cycle;Signal;HPM_P1;HPM_P2
2021/01/03 00:00:55;;;;;;;32.45;13.05;;;204.80;1996.80;;;;;;5114167;28;20027;-65
2021/01/03 00:03:21;;;;;;;23.33;9.00;;;179.90;2073.60;;;;;;5114248;28;20621;-66
2021/01/03 00:05:46;;;;;;;7.55;4.47;;;180.00;2048.00;;;;;;5115433;28;20366;-66
2021/01/03 00:08:12;;;;;;;9.48;4.07;;;204.90;1945.60;;;;;;5115896;28;20040;-64
2021/01/03 00:10:38;;;;;;;9.32;4.72;;;205.30;1894.40;;;;;;5115806;27;20082;-65
2021/01/03 00:13:04;;;;;;;11.45;4.82;;;205.50;1868.80;;;;;;5115968;28;20031;-65
2021/01/03 00:15:30;;;;;;;11.80;5.53;;;205.70;1868.80;;;;;;5115447;28;20595;-64
2021/01/03 00:17:56;;;;;;;13.35;6.63;;;230.40;1868.80;;;;;;5114436;28;20031;-66
2021/01/03 00:20:26;;;;;;;16.15;7.40;;;205.70;1894.40;;;;;;5114911;28;20020;-65
2021/01/03 00:22:52;;;;;;;8.20;4.32;;;205.50;1894.40;;;;;;5114498;28;20028;-64
2021/01/03 00:25:23;;;;;;;9.70;5.35;;;205.60;1868.80;;;;;;5114648;28;20027;-64
2021/01/03 00:27:50;;;;;;;9.98;4.43;;;205.60;1868.80;;;;;;5115224;28;20035;-65
2021/01/03 00:30:17;;;;;;;8.63;4.38;;;205.60;1868.80;;;;;;5115509;28;20031;-65
2021/01/03 00:32:44;;;;;;;7.47;4.60;;;205.70;1868.80;;;;;;5115460;28;20031;-64
2021/01/03 00:35:12;;;;;;;7.43;4.43;;;230.40;1843.20;;;;;;5115590;28;20091;-63
2021/01/03 00:37:38;;;;;;;10.75;4.57;;;230.40;1843.20;;;;;;5115499;28;20038;-65
2021/01/03 00:40:08;;;;;;;19.13;8.98;;;230.50;1817.60;;;;;;5115760;28;20035;-65
2021/01/03 00:42:34;;;;;;;15.20;7.90;;;205.70;1894.40;;;;;;5115946;28;20043;-66
2021/01/03 00:44:59;;;;;;;15.95;8.07;;;205.50;1920.00;;;;;;5115069;28;20057;-64
2021/01/03 00:47:26;;;;;;;18.77;9.18;;;205.40;1945.60;;;;;;5115767;28;20377;-63
2021/01/03 00:49:51;;;;;;;19.52;10.20;;;205.30;1996.80;;;;;;5115385;28;20027;-65
2021/01/03 00:52:17;;;;;;;12.85;7.97;;;205.00;2022.40;;;;;;5115093;28;20026;-64
2021/01/03 00:54:43;;;;;;;15.02;8.38;;;204.90;2022.40;;;;;;5115684;28;20047;-66
2021/01/03 00:57:09;;;;;;;10.98;6.25;;;204.80;2048.00;;;;;;5114637;28;20092;-65
2021/01/03 00:59:34;;;;;;;12.15;6.20;;;205.00;1996.80;;;;;;5115111;28;20028;-64
2021/01/03 01:02:00;;;;;;;14.60;8.75;;;205.20;1971.20;;;;;;5115466;28;20033;-64
2021/01/03 01:04:26;;;;;;;14.02;7.75;;;205.20;1996.80;;;;;;5115348;28;20031;-66
2021/01/03 01:06:52;;;;;;;14.88;8.32;;;205.10;2022.40;;;;;;5115231;28;20045;-64
2021/01/03 01:09:17;;;;;;;13.98;7.97;;;205.10;2022.40;;;;;;5115330;28;20074;-63
2021/01/03 01:11:44;;;;;;;12.77;6.88;;;205.10;2022.40;;;;;;5114908;28;20084;-64
2021/01/03 01:14:10;;;;;;;12.95;7.82;;;205.20;1996.80;;;;;;5115228;28;20036;-65
2021/01/03 01:16:36;;;;;;;14.38;8.20;;;205.30;1996.80;;;;;;5115186;28;20131;-65
2021/01/03 01:19:03;;;;;;;14.60;8.10;;;205.30;1996.80;;;;;;5114541;28;20372;-64
2021/01/03 01:21:29;;;;;;;18.42;10.25;;;205.20;2022.40;;;;;;5113975;28;20080;-64
2021/01/03 01:23:55;;;;;;;18.55;9.35;;;205.00;2048.00;;;;;;5115187;28;20370;-65
2021/01/03 01:26:21;;;;;;;10.88;6.07;;;205.00;2048.00;;;;;;5115153;28;20408;-64
2021/01/03 01:28:47;;;;;;;15.48;7.32;;;205.20;1996.80;;;;;;5114955;28;20162;-65
2021/01/03 01:31:13;;;;;;;15.95;7.55;;;205.40;1996.80;;;;;;5115033;28;20023;-64
2021/01/03 01:33:38;;;;;;;14.60;8.75;;;205.20;2022.40;;;;;;5117336;28;20028;-65
2021/01/03 01:36:05;;;;;;;17.15;8.75;;;205.10;2048.00;;;;;;5118636;28;20035;-65
2021/01/03 01:38:31;;;;;;;15.18;7.55;;;205.10;2099.20;;;;;;5118851;28;20160;-65
2021/01/03 01:40:57;;;;;;;19.50;10.50;;;205.10;2099.20;;;;;;5118184;27;20031;-64
2021/01/03 01:43:24;;;;;;;19.10;9.77;;;205.10;2124.80;;;;;;5118547;28;20035;-65
2021/01/03 01:45:50;;;;;;;15.38;8.52;;;205.00;2150.40;;;;;;5118830;28;20116;-65
2021/01/03 01:48:23;;;;;;;14.63;8.43;;;205.00;2150.40;;;;;;5118515;28;20032;-66
2021/01/03 01:51:07;;;;;;;19.52;10.23;;;205.00;2150.40;;;;;;5118797;28;20085;-65
2021/01/03 01:53:58;;;;;;;16.67;8.90;;;204.90;2201.60;;;;;;5118917;28;20104;-66
2021/01/03 01:56:32;;;;;;;14.00;7.72;;;204.90;2201.60;;;;;;5118475;28;20038;-64
2021/01/03 01:59:29;;;;;;;19.15;9.70;;;205.00;2176.00;;;;;;5118474;28;20024;-65
2021/01/03 02:02:05;;;;;;;20.00;9.18;;;204.90;2176.00;;;;;;5118445;28;20055;-65
2021/01/03 02:04:35;;;;;;;15.18;8.85;;;204.80;2201.60;;;;;;5118360;28;20354;-65
2021/01/03 02:07:17;;;;;;;14.77;8.90;;;204.80;2176.00;;;;;;5118288;28;20067;-64
2021/01/03 02:10:16;;;;;;;17.65;10.88;;;204.80;2201.60;;;;;;5118310;28;20024;-65
2021/01/03 02:12:51;;;;;;;;;;;204.80;2176.00;;;;;;5118928;28;20463;-67
2021/01/03 02:15:27;;;;;;;17.25;8.13;;;180.10;2201.60;;;;;;5117827;28;20340;-69
2021/01/03 02:17:55;;;;;;;15.38;9.25;;;204.80;2150.40;;;;;;5117594;28;20027;-64
2021/01/03 02:20:32;;;;;;;19.02;9.27;;;205.00;2150.40;;;;;;5117999;28;20031;-66
2021/01/03 02:23:02;;;;;;;14.32;8.43;;;205.00;2124.80;;;;;;5117764;28;20144;-65
2021/01/03 02:25:28;;;;;;;16.35;9.10;;;205.00;2124.80;;;;;;5118095;28;20023;-64
2021/01/03 02:28:17;;;;;;;14.68;8.35;;;205.00;2150.40;;;;;;5118199;28;20027;-64
2021/01/03 02:30:52;;;;;;;15.20;8.48;;;205.00;2150.40;;;;;;5117431;27;20027;-64
2021/01/03 02:33:38;;;;;;;17.10;8.85;;;204.90;2176.00;;;;;;5117540;28;20095;-63
2021/01/03 02:36:16;;;;;;;12.93;6.30;;;204.80;2176.00;;;;;;5117875;28;20038;-64
2021/01/03 02:38:50;;;;;;;12.45;7.30;;;204.90;2150.40;;;;;;5117767;28;20031;-65
2021/01/03 02:41:18;;;;;;;15.52;8.63;;;205.00;2124.80;;;;;;5118149;28;20424;-65
2021/01/03 02:43:44;;;;;;;13.95;7.40;;;205.00;2124.80;;;;;;5116842;28;20092;-64
2021/01/03 02:46:10;;;;;;;14.15;7.13;;;204.90;2150.40;;;;;;5117060;28;20056;-64
2021/01/03 02:48:35;;;;;;;12.88;7.70;;;205.00;2124.80;;;;;;5116994;28;20118;-64
2021/01/03 02:51:01;;;;;;;12.18;7.18;;;205.00;2124.80;;;;;;5117209;28;20526;-65
2021/01/03 02:53:27;;;;;;;11.43;6.57;;;205.00;2099.20;;;;;;5117655;28;20325;-64
2021/01/03 02:55:53;;;;;;;8.40;4.88;;;205.10;2099.20;;;;;;5117138;28;20039;-65
2021/01/03 02:58:18;;;;;;;13.70;5.43;;;205.10;2073.60;;;;;;5116543;28;20023;-64
2021/01/03 03:00:44;;;;;;;11.27;5.38;;;205.20;2048.00;;;;;;5116794;28;20027;-64
2021/01/03 03:03:10;;;;;;;8.45;4.95;;;205.30;2048.00;;;;;;5117503;27;20023;-64
2021/01/03 03:05:36;;;;;;;8.23;4.13;;;205.40;2022.40;;;;;;5116668;28;20043;-64
2021/01/03 03:08:04;;;;;;;9.20;4.47;;;205.50;2048.00;;;;;;5116968;28;20427;-64
2021/01/03 03:10:30;;;;;;;11.98;4.38;;;205.50;2048.00;;;;;;5117035;28;20024;-64
2021/01/03 03:12:58;;;;;;;9.13;4.05;;;205.60;2048.00;;;;;;5116368;28;20030;-65
2021/01/03 03:15:26;;;;;;;12.27;4.82;;;205.60;2048.00;;;;;;5117248;28;20032;-64
2021/01/03 03:17:53;;;;;;;6.67;4.13;;;205.60;2073.60;;;;;;5117205;28;20100;-64
2021/01/03 03:20:20;;;;;;;8.45;4.82;;;205.60;2073.60;;;;;;5116762;28;20577;-66
2021/01/03 03:22:47;;;;;;;12.25;5.80;;;205.60;2073.60;;;;;;5115589;28;20066;-66
2021/01/03 03:25:14;;;;;;;11.32;6.25;;;205.40;2124.80;;;;;;5116658;28;20386;-65
2021/01/03 03:27:40;;;;;;;13.60;6.45;;;205.20;2150.40;;;;;;5116518;28;20086;-65
2021/01/03 03:30:08;;;;;;;10.65;6.03;;;205.00;2201.60;;;;;;5116778;28;20032;-65
2021/01/03 03:32:34;;;;;;;13.60;5.93;;;204.80;2227.20;;;;;;5116315;28;20035;-65
2021/01/03 03:35:00;;;;;;;13.57;5.72;;;204.80;2227.20;;;;;;5116347;27;20024;-65
2021/01/03 03:37:27;;;;;;;8.63;5.05;;;204.80;2227.20;;;;;;5116285;28;20027;-65
2021/01/03 03:39:53;;;;;;;9.75;5.10;;;204.90;2227.20;;;;;;5116178;28;20023;-63
2021/01/03 03:42:19;;;;;;;8.85;5.05;;;180.10;2252.80;;;;;;5116441;28;20443;-66
2021/01/03 03:44:44;;;;;;;12.70;5.93;;;180.10;2252.80;;;;;;5116809;28;20380;-64
2021/01/03 03:47:10;;;;;;;8.68;4.90;;;180.10;2252.80;;;;;;5115889;28;20047;-64
2021/01/03 03:49:36;;;;;;;9.27;4.38;;;204.80;2227.20;;;;;;5116185;28;20077;-64
2021/01/03 03:52:04;;;;;;;7.20;4.85;;;204.90;2227.20;;;;;;5116302;28;20057;-63
2021/01/03 03:54:31;;;;;;;10.68;3.92;;;204.80;2227.20;;;;;;5115976;28;20110;-64
2021/01/03 03:56:59;;;;;;;8.20;4.40;;;204.80;2252.80;;;;;;5116414;28;20114;-64
2021/01/03 03:59:26;;;;;;;6.55;4.20;;;180.00;2227.20;;;;;;5115988;28;20023;-65
2021/01/03 04:01:53;;;;;;;7.35;4.18;;;179.90;2252.80;;;;;;5115921;28;20035;-65
2021/01/03 04:04:19;;;;;;;7.50;3.67;;;180.00;2252.80;;;;;;5115476;28;20023;-65
2021/01/03 04:06:45;;;;;;;6.60;3.40;;;204.80;2227.20;;;;;;5115672;27;20446;-64
2021/01/03 04:09:12;;;;;;;6.00;3.08;;;204.90;2227.20;;;;;;5115308;28;20027;-63
2021/01/03 04:11:45;;;;;;;6.82;3.70;;;205.00;2201.60;;;;;;5116186;28;20027;-64
2021/01/03 04:14:12;;;;;;;8.52;4.10;;;204.90;2227.20;;;;;;5115902;28;20031;-64
2021/01/03 04:16:58;;;;;;;6.40;3.42;;;204.80;2201.60;;;;;;5115418;27;20030;-65
2021/01/03 04:19:25;;;;;;;5.53;3.10;;;179.90;2227.20;;;;;;5116320;28;20016;-64
2021/01/03 04:21:57;;;;;;;4.03;2.42;;;179.90;2252.80;;;;;;5115475;28;20031;-65
2021/01/03 04:24:25;;;;;;;12.82;3.40;;;204.80;2227.20;;;;;;5116053;28;20023;-64
2021/01/03 04:26:56;;;;;;;12.13;3.47;;;180.10;2201.60;;;;;;5114785;28;20125;-63
2021/01/03 04:29:22;;;;;;;5.97;3.08;;;180.10;2201.60;;;;;;5115731;28;20100;-63
2021/01/03 04:32:00;;;;;;;4.15;2.75;;;180.10;2201.60;;;;;;5115505;28;20031;-64
2021/01/03 04:34:26;;;;;;;5.93;2.75;;;180.00;2201.60;;;;;;5114751;28;20047;-64
2021/01/03 04:36:53;;;;;;;6.15;3.40;;;180.00;2201.60;;;;;;5117842;28;20028;-63
2021/01/03 04:39:20;;;;;;;10.75;3.67;;;180.00;2227.20;;;;;;5118135;28;20398;-64
2021/01/03 04:41:48;;;;;;;5.10;2.78;;;180.00;2227.20;;;;;;5117485;28;20114;-63
2021/01/03 04:44:24;;;;;;;6.97;3.00;;;180.10;2201.60;;;;;;5117581;28;20023;-65
2021/01/03 04:46:51;;;;;;;5.47;2.42;;;180.10;2176.00;;;;;;5118064;28;20039;-65
2021/01/03 04:49:40;;;;;;;5.93;3.08;;;204.80;2176.00;;;;;;5118045;28;20172;-64
2021/01/03 04:52:23;;;;;;;5.30;3.08;;;180.10;2201.60;;;;;;5117996;28;20020;-63
2021/01/03 04:54:58;;;;;;;7.07;2.58;;;180.10;2201.60;;;;;;5118043;28;20027;-64
2021/01/03 04:57:36;;;;;;;3.67;2.33;;;179.90;2201.60;;;;;;5117465;28;20420;-64
2021/01/03 05:00:04;;;;;;;4.35;2.60;;;180.00;2201.60;;;;;;5117316;28;20073;-65
2021/01/03 05:03:31;;;;;;;5.50;2.47;;;179.90;2201.60;;;;;;5117917;28;20027;-65
2021/01/03 05:06:06;;;;;;;4.45;3.00;;;180.00;2201.60;;;;;;5032528;28;20467;-64
2021/01/03 05:08:46;;;;;;;4.28;2.80;;;180.00;2176.00;;;;;;5037924;28;20029;-63
2021/01/03 05:11:17;;;;;;;3.72;2.50;;;180.00;2201.60;;;;;;5038191;28;20037;-65
2021/01/03 05:14:19;;;;;;;4.60;2.50;;;180.00;2176.00;;;;;;5038936;28;20176;-63
2021/01/03 05:16:54;;;;;;;5.00;2.88;;;180.00;2176.00;;;;;;5038131;28;20123;-64
2021/01/03 05:19:21;;;;;;;6.20;2.88;;;180.00;2176.00;;;;;;5036106;28;20426;-64
2021/01/03 05:21:52;;;;;;;4.68;2.58;;;180.00;2176.00;;;;;;5035905;28;20025;-63
2021/01/03 05:24:20;;;;;;;4.03;2.20;;;180.00;2176.00;;;;;;5035735;28;20049;-64
2021/01/03 05:26:45;;;;;;;7.38;2.67;;;180.00;2176.00;;;;;;5035815;28;20091;-64
2021/01/03 05:29:25;;;;;;;4.57;2.90;;;180.10;2176.00;;;;;;5035624;28;20038;-64
2021/01/03 05:32:00;;;;;;;4.65;2.45;;;180.00;2176.00;;;;;;5035489;28;20044;-63
2021/01/03 05:34:38;;;;;;;4.18;2.58;;;180.00;2176.00;;;;;;5036120;28;20034;-65
2021/01/03 05:37:21;;;;;;;5.25;2.88;;;180.10;2201.60;;;;;;5086518;28;20083;-65
2021/01/03 05:39:47;;;;;;;4.45;2.70;;;180.10;2176.00;;;;;;5098017;28;20055;-63
2021/01/03 05:42:19;;;;;;;4.50;2.78;;;180.10;2150.40;;;;;;5098284;28;20028;-65
2021/01/03 05:44:57;;;;;;;4.18;2.83;;;204.80;2150.40;;;;;;5098608;28;20081;-64
2021/01/03 05:47:38;;;;;;;5.53;2.73;;;180.10;2150.40;;;;;;5098167;28;20048;-64
2021/01/03 05:50:32;;;;;;;4.22;2.75;;;204.90;2150.40;;;;;;5098386;28;20062;-64
2021/01/03 05:53:28;;;;;;;6.55;3.42;;;204.90;2150.40;;;;;;5095826;28;20040;-64
2021/01/03 05:56:00;;;;;;;7.80;3.53;;;180.10;2201.60;;;;;;5098312;28;20028;-65
2021/01/03 05:58:40;;;;;;;7.22;3.47;;;180.10;2176.00;;;;;;5097718;28;20028;-64
2021/01/03 06:01:19;;;;;;;4.78;2.97;;;204.90;2150.40;;;;;;5097652;28;20039;-65
2021/01/03 06:04:04;;;;;;;5.47;2.95;;;205.00;2150.40;;;;;;5098107;28;20020;-64
2021/01/03 06:06:51;;;;;;;5.43;3.58;;;205.00;2150.40;;;;;;5097293;28;20305;-64
2021/01/03 06:09:23;;;;;;;5.68;3.05;;;205.00;2150.40;;;;;;5098327;28;20024;-63
2021/01/03 06:12:07;;;;;;;4.85;3.08;;;205.10;2150.40;;;;;;5098081;28;20024;-65
2021/01/03 06:14:34;;;;;;;4.47;2.58;;;205.10;2124.80;;;;;;5101273;28;20024;-63
2021/01/03 06:17:32;;;;;;;9.73;5.05;;;205.10;2124.80;;;;;;5118243;28;20031;-64
2021/01/03 06:20:13;;;;;;;22.98;15.23;;;205.20;2124.80;;;;;;5089451;28;20067;-65
2021/01/03 06:22:55;;;;;;;16.23;11.02;;;205.00;2150.40;;;;;;5117669;28;20028;-65
2021/01/03 06:25:42;;;;;;;9.80;6.50;;;205.10;2150.40;;;;;;5118044;28;20096;-65
2021/01/03 06:28:21;;;;;;;16.30;12.65;;;205.10;2124.80;;;;;;5117601;28;20429;-64
2021/01/03 06:31:34;;;;;;;358.20;158.27;;;205.10;2124.80;;;;;;5118354;28;20038;-65
2021/01/03 06:34:24;;;;;;;325.35;165.48;;;205.10;2150.40;;;;;;5089890;28;20031;-64
2021/01/03 06:37:19;;;;;;;18.10;12.90;;;205.10;2150.40;;;;;;5118204;28;20058;-63
2021/01/03 06:40:04;;;;;;;20.30;18.17;;;205.00;2150.40;;;;;;5118043;28;20070;-65
2021/01/03 06:42:45;;;;;;;15.35;12.70;;;205.10;2150.40;;;;;;5117415;28;20423;-63
2021/01/03 06:45:29;;;;;;;9.63;6.75;;;204.90;2176.00;;;;;;5117803;28;20059;-63
2021/01/03 06:48:19;;;;;;;10.48;6.82;;;205.00;2176.00;;;;;;5117463;28;20624;-65
2021/01/03 06:51:07;;;;;;;8.38;5.85;;;205.00;2176.00;;;;;;5117264;28;20024;-64
2021/01/03 06:53:54;;;;;;;6.45;4.18;;;205.00;2176.00;;;;;;5117186;28;20220;-65
2021/01/03 06:56:59;;;;;;;5.93;4.57;;;205.20;2150.40;;;;;;5117173;28;20092;-64
2021/01/03 06:59:27;;;;;;;5.75;3.75;;;205.30;2150.40;;;;;;5117697;28;20110;-64
2021/01/03 07:01:53;;;;;;;6.15;3.85;;;205.40;2124.80;;;;;;5117016;28;20031;-64
2021/01/03 07:04:26;;;;;;;6.43;4.20;;;205.60;2124.80;;;;;;5117332;28;20232;-65
2021/01/03 07:06:53;;;;;;;7.35;4.68;;;205.70;2099.20;;;;;;5116932;28;20041;-63
2021/01/03 07:09:19;;;;;;;17.23;12.07;;;230.40;2099.20;;;;;;5117381;28;20031;-65
2021/01/03 07:11:49;;;;;;;16.67;12.55;;;230.60;2073.60;;;;;;5117099;27;20027;-65
2021/01/03 07:14:24;;;;;;;14.55;9.75;;;230.70;2073.60;;;;;;5117100;28;20024;-65
2021/01/03 07:17:00;;;;;;;16.45;12.15;;;230.60;2048.00;;;;;;5116393;28;20035;-64
2021/01/03 07:19:32;;;;;;;6.93;5.45;;;230.70;2048.00;;;;;;5117091;28;20085;-63
2021/01/03 07:22:12;;;;;;;5.78;4.28;;;230.80;2048.00;;;;;;5116477;28;20586;-65
2021/01/03 07:24:38;;;;;;;8.55;6.32;;;230.80;2048.00;;;;;;5116886;28;20100;-64
2021/01/03 07:27:34;;;;;;;8.63;5.95;;;230.70;2073.60;;;;;;5116671;27;20035;-63
2021/01/03 07:30:02;;;;;;;9.73;5.80;;;231.00;2048.00;;;;;;5115549;28;20432;-65
2021/01/03 07:32:37;;;;;;;11.10;5.22;;;231.10;2048.00;;;;;;5116336;28;20134;-64
2021/01/03 07:35:27;;;;;;;6.95;4.15;;;231.20;2048.00;;;;;;5116986;28;20054;-64
2021/01/03 07:38:26;;;;;;;6.32;4.05;;;231.20;2048.00;;;;;;5115992;27;20077;-65
2021/01/03 07:41:04;;;;;;;13.07;6.78;;;256.00;2048.00;;;;;;5116245;28;20487;-65
2021/01/03 07:43:57;;;;;;;10.77;4.20;;;256.30;1996.80;;;;;;5116745;28;20028;-65
2021/01/03 07:46:46;;;;;;;17.70;10.07;;;256.50;1971.20;;;;;;5116266;28;20053;-64
2021/01/03 07:49:26;;;;;;;13.95;8.70;;;256.40;1996.80;;;;;;5116859;28;20031;-65
2021/01/03 07:51:53;;;;;;;15.00;8.30;;;256.20;1996.80;;;;;;5116299;28;20127;-64
2021/01/03 07:54:19;;;;;;;22.88;9.55;;;256.10;2022.40;;;;;;5116072;28;20024;-64
2021/01/03 07:56:45;;;;;;;12.52;7.53;;;256.00;2022.40;;;;;;5116176;28;20340;-64
2021/01/03 07:59:10;;;;;;;12.40;6.75;;;231.30;2022.40;;;;;;5115904;28;20344;-64
2021/01/03 08:01:45;;;;;;;13.23;8.35;;;256.00;2022.40;;;;;;5114407;28;20038;-63
2021/01/03 08:04:23;;;;;;;18.88;11.85;;;256.00;2022.40;;;;;;5114424;28;20031;-63
2021/01/03 08:06:49;;;;;;;13.02;8.70;;;231.20;2048.00;;;;;;5114075;28;20067;-65
2021/01/03 08:09:27;;;;;;;8.18;4.57;;;231.10;2048.00;;;;;;5115342;28;20030;-64
2021/01/03 08:12:06;;;;;;;8.77;5.82;;;231.00;2048.00;;;;;;5114726;28;20023;-66
2021/01/03 08:14:36;;;;;;;20.15;14.55;;;231.30;2048.00;;;;;;5112210;28;20513;-65
2021/01/03 08:17:02;;;;;;;20.00;16.02;;;231.30;2073.60;;;;;;5114529;28;20424;-66
2021/01/03 08:19:29;;;;;;;33.95;27.33;;;231.20;2022.40;;;;;;5114478;28;20027;-65
2021/01/03 08:21:58;;;;;;;18.15;15.98;;;231.00;2073.60;;;;;;5114459;28;20102;-64
2021/01/03 08:24:26;;;;;;;12.63;7.68;;;231.10;2048.00;;;;;;5114532;28;20028;-64
2021/01/03 08:27:02;;;;;;;11.32;9.35;;;231.20;2048.00;;;;;;5114371;28;20034;-65
2021/01/03 08:30:09;;;;;;;9.93;7.13;;;256.00;2048.00;;;;;;5115601;27;20081;-64
2021/01/03 08:32:38;;;;;;;9.77;6.68;;;231.30;2048.00;;;;;;5032614;28;20160;-63
2021/01/03 08:35:12;;;;;;;10.05;6.53;;;231.30;2048.00;;;;;;5031939;28;20029;-66
2021/01/03 08:37:44;;;;;;;11.35;8.55;;;231.30;1996.80;;;;;;5032868;28;20439;-65
2021/01/03 08:40:28;;;;;;;13.27;8.23;;;231.20;2048.00;;;;;;5032566;28;20033;-65
2021/01/03 08:42:58;;;;;;;14.32;9.10;;;231.30;2048.00;;;;;;5031531;28;20116;-63
2021/01/03 08:45:33;;;;;;;58.22;11.73;;;256.40;2048.00;;;;;;5031414;28;20049;-65
2021/01/03 08:48:09;;;;;;;26.40;16.27;;;256.80;1971.20;;;;;;5031509;28;20041;-65
2021/01/03 08:50:38;;;;;;;24.13;11.88;;;256.90;1945.60;;;;;;5027429;28;20041;-64
2021/01/03 08:53:18;;;;;;;22.50;10.93;;;281.90;1945.60;;;;;;5028230;28;20418;-64
2021/01/03 08:55:44;;;;;;;33.13;17.63;;;282.00;1945.60;;;;;;5031408;28;20072;-64
2021/01/03 08:58:16;;;;;;;19.00;12.77;;;281.90;1971.20;;;;;;5032023;28;20034;-64
2021/01/03 09:00:43;;;;;;;36.40;20.77;;;281.80;1945.60;;;;;;5032595;28;20116;-66
2021/01/03 09:03:20;;;;;;;17.58;10.48;;;281.70;1971.20;;;;;;5068234;28;20126;-65
2021/01/03 09:05:48;;;;;;;15.93;11.02;;;281.60;1996.80;;;;;;5114702;28;20097;-66
2021/01/03 09:08:26;;;;;;;10.23;6.68;;;256.90;1971.20;;;;;;5113019;28;20032;-64
2021/01/03 09:10:59;;;;;;;13.35;10.88;;;256.90;1971.20;;;;;;5114683;28;20421;-64
2021/01/03 09:13:28;;;;;;;34.42;16.35;;;256.90;1971.20;;;;;;5113450;28;20019;-65
2021/01/03 09:16:16;;;;;;;56.00;33.65;;;256.90;1971.20;;;;;;5113717;28;20032;-65
2021/01/03 09:18:59;;;;;;;141.43;78.00;;;256.90;1971.20;;;;;;5113293;28;20027;-66
2021/01/03 09:21:26;;;;;;;85.13;51.58;;;281.60;1996.80;;;;;;5114656;28;20034;-65
2021/01/03 09:24:00;;;;;;;59.72;34.55;;;281.60;1971.20;;;;;;5117181;28;20487;-65
2021/01/03 09:26:39;;;;;;;11.40;8.10;;;256.90;1971.20;;;;;;5116666;28;20027;-64
2021/01/03 09:29:08;;;;;;;;;;;256.80;1945.60;;;;;;5117357;28;20028;-65
2021/01/03 09:31:37;;;;;;;12.60;7.18;;;256.90;1971.20;;;;;;5115302;28;19915;-63
2021/01/03 09:34:15;;;;;;;24.92;13.65;;;256.80;1971.20;;;;;;5116137;28;20080;-64
2021/01/03 09:37:03;;;;;;;38.38;22.73;;;256.60;1996.80;;;;;;5116285;28;20064;-64
2021/01/03 09:39:37;;;;;;;29.73;16.70;;;256.70;1971.20;;;;;;5116592;28;20104;-66
2021/01/03 09:42:31;;;;;;;5.53;3.88;;;256.90;1971.20;;;;;;5115536;28;20020;-66
2021/01/03 09:45:20;;;;;;;7.00;5.35;;;281.60;1971.20;;;;;;5113953;28;20474;-63
2021/01/03 09:47:47;;;;;;;16.42;11.57;;;281.90;1996.80;;;;;;5116081;28;20082;-66
2021/01/03 09:50:26;;;;;;;6.78;4.97;;;282.00;1971.20;;;;;;5115156;28;20024;-64
2021/01/03 09:53:06;;;;;;;10.82;9.00;;;282.10;1945.60;;;;;;5113207;28;20035;-63
2021/01/03 09:55:40;;;;;;;11.60;10.13;;;282.20;1920.00;;;;;;5117717;28;20027;-65
2021/01/03 09:58:08;;;;;;;11.57;10.48;;;282.30;1945.60;;;;;;5116447;28;20385;-66
2021/01/03 10:00:55;;;;;;;5.77;5.17;;;282.40;1920.00;;;;;;5119916;28;20099;-67
2021/01/03 10:03:38;;;;;;;6.90;5.93;;;282.40;1894.40;;;;;;5118881;28;20280;-64
2021/01/03 10:06:34;;;;;;;4.35;2.75;;;282.50;1868.80;;;;;;5117661;28;20059;-64
2021/01/03 10:09:29;;;;;;;6.25;3.58;;;307.20;1868.80;;;;;;5116045;28;20042;-65
2021/01/03 10:11:55;;;;;;;5.00;4.05;;;307.30;1868.80;;;;;;5117445;28;20015;-65
2021/01/03 10:14:32;;;;;;;6.00;4.22;;;307.30;1868.80;;;;;;5119762;28;20455;-65
2021/01/03 10:17:18;;;;;;;3.85;3.22;;;307.40;1868.80;;;;;;5115971;28;20027;-64
2021/01/03 10:19:45;;;;;;;4.00;2.92;;;307.40;1843.20;;;;;;5116931;28;20054;-65
2021/01/03 10:22:46;;;;;;;4.25;2.60;;;307.50;1843.20;;;;;;5119719;28;20051;-64
2021/01/03 10:25:17;;;;;;;6.00;4.18;;;307.50;1843.20;;;;;;5035933;28;20056;-68
2021/01/03 10:28:09;;;;;;;4.93;2.92;;;307.60;1868.80;;;;;;5034892;28;20350;-67
2021/01/03 10:30:35;;;;;;;5.07;2.85;;;307.60;1843.20;;;;;;5035129;28;20450;-65
2021/01/03 10:33:01;;;;;;;6.30;3.60;;;307.60;1843.20;;;;;;5034042;28;20233;-64
2021/01/03 10:35:28;;;;;;;4.53;2.72;;;307.70;1843.20;;;;;;5034176;28;20037;-65
2021/01/03 10:37:53;;;;;;;3.95;2.80;;;307.70;1843.20;;;;;;5035833;28;20030;-64
2021/01/03 10:40:20;;;;;;;4.63;3.17;;;307.80;1843.20;;;;;;5036305;28;20091;-64
2021/01/03 10:42:48;;;;;;;4.30;2.63;;;307.90;1817.60;;;;;;5035501;28;20042;-66
2021/01/03 10:45:14;;;;;;;4.22;2.50;;;308.00;1843.20;;;;;;5035514;28;20420;-64
2021/01/03 10:47:40;;;;;;;4.38;2.60;;;308.00;1792.00;;;;;;5047583;28;20045;-65
2021/01/03 10:50:06;;;;;;;4.55;3.00;;;308.10;1817.60;;;;;;5055422;28;20438;-63
2021/01/03 10:52:32;;;;;;;5.43;3.42;;;332.80;1792.00;;;;;;5053436;28;20125;-65
2021/01/03 10:54:58;;;;;;;3.78;2.60;;;332.80;1792.00;;;;;;5056129;28;20091;-65
2021/01/03 10:57:23;;;;;;;5.03;2.95;;;332.80;1817.60;;;;;;5055765;28;20040;-65
2021/01/03 10:59:49;;;;;;;6.78;2.95;;;333.00;1792.00;;;;;;5071698;28;20093;-64
2021/01/03 11:02:15;;;;;;;5.68;3.53;;;333.00;1792.00;;;;;;5075826;28;20047;-66
2021/01/03 11:04:41;;;;;;;5.95;3.47;;;333.10;1792.00;;;;;;5075719;28;20043;-63
2021/01/03 11:07:09;;;;;;;3.30;2.25;;;333.30;1766.40;;;;;;5083059;28;20438;-64
2021/01/03 11:09:35;;;;;;;6.97;3.10;;;333.50;1715.20;;;;;;5098529;28;20032;-65
2021/01/03 11:12:07;;;;;;;4.30;2.30;;;333.60;1715.20;;;;;;5097579;28;20340;-64
2021/01/03 11:14:34;;;;;;;6.40;2.30;;;358.50;1715.20;;;;;;5101539;28;20031;-65
2021/01/03 11:16:59;;;;;;;5.90;3.47;;;358.60;1689.60;;;;;;5114463;28;20459;-64
2021/01/03 11:19:26;;;;;;;8.13;5.15;;;358.70;1689.60;;;;;;5107444;28;20098;-66
2021/01/03 11:21:56;;;;;;;11.40;8.23;;;358.90;1664.00;;;;;;5114095;28;20032;-67
2021/01/03 11:24:22;;;;;;;14.85;9.70;;;359.10;1638.40;;;;;;5108856;28;20057;-65
2021/01/03 11:26:48;;;;;;;32.05;22.80;;;359.20;1638.40;;;;;;5113776;28;20027;-63
2021/01/03 11:29:23;;;;;;;22.70;16.63;;;384.20;1587.20;;;;;;5115239;27;20560;-66
2021/01/03 11:31:51;;;;;;;26.42;19.55;;;384.50;1561.60;;;;;;5113469;28;20108;-66
2021/01/03 11:34:21;;;;;;;10.65;6.80;;;384.70;1561.60;;;;;;5112038;28;20416;-66
2021/01/03 11:36:53;;;;;;;10.55;8.88;;;384.80;1536.00;;;;;;5112822;28;20031;-66
2021/01/03 11:39:20;;;;;;;11.80;7.70;;;409.60;1536.00;;;;;;5113326;28;20391;-66
2021/01/03 11:41:49;;;;;;;13.93;10.05;;;409.90;1510.40;;;;;;5114546;28;20102;-66
2021/01/03 11:44:15;;;;;;;;;;;410.00;1510.40;;;;;;5115929;28;20457;-66
2021/01/03 11:46:42;;;;;;;12.40;8.40;;;410.40;1484.80;;;;;;5113166;28;20373;-66
2021/01/03 11:49:08;;;;;;;14.70;10.80;;;435.50;1459.20;;;;;;5114240;28;20351;-64
2021/01/03 11:51:35;;;;;;;7.40;4.90;;;435.70;1408.00;;;;;;5114571;28;20035;-63
2021/01/03 11:54:01;;;;;;;8.43;4.25;;;435.90;1382.40;;;;;;5115638;28;20042;-66
2021/01/03 11:56:26;;;;;;;5.70;4.97;;;436.00;1382.40;;;;;;5113314;28;20023;-65
2021/01/03 11:58:52;;;;;;;9.43;7.03;;;460.90;1382.40;;;;;;5115368;27;20035;-64
2021/01/03 12:01:21;;;;;;;10.20;4.78;;;460.90;1382.40;;;;;;5112758;28;20102;-63
2021/01/03 12:03:47;;;;;;;4.32;2.42;;;460.90;1382.40;;;;;;5114354;28;20023;-65
2021/01/03 12:06:17;;;;;;;5.53;3.60;;;460.90;1382.40;;;;;;5114811;28;20063;-64
2021/01/03 12:08:54;;;;;;;5.38;3.83;;;461.10;1382.40;;;;;;5109968;28;20090;-63
2021/01/03 12:11:24;;;;;;;4.60;2.80;;;461.50;1331.20;;;;;;5111577;28;20114;-64
2021/01/03 12:13:53;;;;;;;5.32;2.72;;;461.70;1305.60;;;;;;5114980;28;20031;-64
2021/01/03 12:16:20;;;;;;;;;;;461.70;1305.60;;;;;;5115287;28;20028;-66
2021/01/03 12:18:46;;;;;;;4.93;3.60;;;486.40;1305.60;;;;;;5114348;28;19907;-66
2021/01/03 12:21:19;;;;;;;4.45;3.55;;;486.50;1280.00;;;;;;5114621;28;20027;-65
2021/01/03 12:23:44;;;;;;;4.18;3.35;;;486.90;1280.00;;;;;;5112644;28;20033;-65
2021/01/03 12:26:10;;;;;;;8.88;5.65;;;487.20;1254.40;;;;;;5114548;28;20040;-65
2021/01/03 12:28:36;;;;;;;5.97;3.92;;;486.80;1254.40;;;;;;5115006;28;20035;-64
2021/01/03 12:31:02;;;;;;;5.32;3.83;;;512.00;1228.80;;;;;;5098917;28;20031;-66
2021/01/03 12:33:28;;;;;;;7.07;3.70;;;512.30;1228.80;;;;;;5093607;28;20064;-65
2021/01/03 12:35:54;;;;;;;5.15;3.40;;;512.40;1203.20;;;;;;5094442;28;20024;-65
2021/01/03 12:38:20;;;;;;;9.48;4.15;;;512.30;1203.20;;;;;;5097463;28;20053;-64
2021/01/03 12:40:45;;;;;;;7.28;4.47;;;512.20;1228.80;;;;;;5107435;28;20047;-65